Time;durP1;ratioP1;P1;durP2;ratioP2;P2;SDS_P1;SDS_P2;PMS_P1;PMS_P2;Temp;Humidity;BMP_temperature;BMP_pressure;BME280_temperature;BME280_humidity;BME280_pressure;Samples;Min_cycle;Max_cycle;Signal;HPM_P1;HPM_P2
2023/04/25 00:01:13;;;;;;;17.52;4.68;;;7.00;99.90;;;;;;4998669;28;20072;-75
2023/04/25 00:03:39;;;;;;;14.23;4.72;;;7.00;99.90;;;;;;5018037;28;20068;-75
2023/04/25 00:06:06;;;;;;;14.88;4.55;;;7.00;99.90;;;;;;5000556;28;20046;-75
2023/04/25 00:08:32;;;;;;;15.70;4.43;;;7.00;99.90;;;;;;4997601;28;20474;-75
2023/04/25 00:10:58;;;;;;;25.80;5.43;;;6.90;99.90;;;;;;5009345;28;20046;-75
2023/04/25 00:13:27;;;;;;;19.58;4.55;;;6.90;99.90;;;;;;4993253;28;20049;-75
2023/04/25 00:15:52;;;;;;;24.90;5.18;;;6.90;99.90;;;;;;4993049;28;20533;-76
2023/04/25 00:18:19;;;;;;;18.58;4.70;;;6.80;99.90;;;;;;4991904;28;20046;-76
2023/04/25 00:20:46;;;;;;;17.73;4.95;;;6.80;99.90;;;;;;4992753;28;20045;-76
2023/04/25 00:23:17;;;;;;;17.27;4.57;;;6.70;99.90;;;;;;4992993;28;20526;-76
2023/04/25 00:25:44;;;;;;;17.77;5.00;;;6.70;99.90;;;;;;4994281;28;20046;-76
2023/04/25 00:28:10;;;;;;;16.15;4.53;;;6.70;99.90;;;;;;4993174;28;20429;-76
2023/04/25 00:30:35;;;;;;;17.88;4.57;;;6.70;99.90;;;;;;4992863;28;20037;-76
2023/04/25 00:33:01;;;;;;;17.77;4.50;;;6.60;99.90;;;;;;4994393;28;20096;-76
2023/04/25 00:35:27;;;;;;;21.92;4.35;;;6.60;99.90;;;;;;5000049;28;20042;-76
2023/04/25 00:37:52;;;;;;;15.23;4.15;;;6.60;99.90;;;;;;5005586;28;20041;-76
2023/04/25 00:40:18;;;;;;;16.90;4.60;;;6.60;99.90;;;;;;4990692;28;20088;-76
2023/04/25 00:42:44;;;;;;;17.40;4.43;;;6.50;99.90;;;;;;4984909;28;20078;-76
2023/04/25 00:45:14;;;;;;;21.88;4.95;;;6.50;99.90;;;;;;4989147;28;20042;-76
2023/04/25 00:47:40;;;;;;;16.40;4.10;;;6.50;99.90;;;;;;4983922;28;20080;-76
2023/04/25 00:50:07;;;;;;;18.00;4.72;;;6.50;99.90;;;;;;4994004;28;20134;-76
2023/04/25 00:52:32;;;;;;;24.80;4.80;;;6.50;99.90;;;;;;4987182;28;20391;-76
2023/04/25 00:54:59;;;;;;;17.25;4.57;;;6.50;99.90;;;;;;4998210;28;20088;-76
2023/04/25 00:57:28;;;;;;;20.17;4.50;;;6.50;99.90;;;;;;4991809;28;20048;-76
2023/04/25 00:59:54;;;;;;;16.15;4.50;;;6.50;99.90;;;;;;4995870;28;20041;-76
2023/04/25 01:02:20;;;;;;;15.10;4.05;;;6.50;99.90;;;;;;5019907;23;20033;-76
2023/04/25 01:04:47;;;;;;;18.45;4.13;;;6.50;99.90;;;;;;4987881;28;20048;-76
2023/04/25 01:07:13;;;;;;;17.35;4.20;;;6.50;99.90;;;;;;4993358;28;20041;-77
2023/04/25 01:09:39;;;;;;;15.13;4.63;;;6.40;99.90;;;;;;4996079;28;20099;-77
2023/04/25 01:12:04;;;;;;;10.70;3.58;;;7.10;99.90;;;;;;4995310;28;20074;-77
2023/04/25 01:14:30;;;;;;;17.05;4.15;;;6.40;99.90;;;;;;4979926;28;20107;-79
2023/04/25 01:16:56;;;;;;;18.02;4.70;;;6.30;99.90;;;;;;4980476;28;20048;-77
2023/04/25 01:19:22;;;;;;;16.17;4.28;;;6.40;99.90;;;;;;5008168;28;20042;-77
2023/04/25 01:21:47;;;;;;;19.58;3.97;;;6.30;99.90;;;;;;4987340;28;20045;-79
2023/04/25 01:24:13;;;;;;;20.88;4.43;;;7.10;99.90;;;;;;4995301;28;20048;-79
2023/04/25 01:26:44;;;;;;;19.15;4.13;;;6.30;99.90;;;;;;4990680;28;20053;-77
2023/04/25 01:29:10;;;;;;;13.75;4.47;;;6.30;99.90;;;;;;4989932;28;20116;-77
2023/04/25 01:31:36;;;;;;;18.55;4.72;;;6.30;99.90;;;;;;4995875;28;20049;-77
2023/04/25 01:34:02;;;;;;;16.67;4.93;;;6.20;99.90;;;;;;4996109;28;20148;-76
2023/04/25 01:36:28;;;;;;;17.05;4.00;;;6.30;99.90;;;;;;4970033;28;20548;-78
2023/04/25 01:38:54;;;;;;;18.90;4.93;;;6.20;99.90;;;;;;4993380;28;20041;-77
2023/04/25 01:41:22;;;;;;;14.20;4.28;;;6.30;99.90;;;;;;4979515;28;20424;-76
2023/04/25 01:43:48;;;;;;;14.38;4.43;;;6.30;99.90;;;;;;4975907;28;20038;-76
2023/04/25 01:46:14;;;;;;;15.35;3.67;;;6.20;99.90;;;;;;4990876;28;20168;-76
2023/04/25 01:48:40;;;;;;;13.23;3.58;;;6.30;99.90;;;;;;4983236;28;20342;-77
2023/04/25 01:51:06;;;;;;;17.25;5.55;;;6.20;99.90;;;;;;4995934;28;20088;-78
2023/04/25 01:53:31;;;;;;;16.02;4.18;;;6.20;99.90;;;;;;4987653;28;20046;-77
2023/04/25 01:55:57;;;;;;;16.88;4.07;;;6.20;99.90;;;;;;4990223;28;20092;-77
2023/04/25 01:58:23;;;;;;;17.95;4.88;;;6.20;99.90;;;;;;4986529;28;20477;-77
2023/04/25 02:00:48;;;;;;;17.80;3.95;;;6.20;99.90;;;;;;4994177;28;20052;-77
2023/04/25 02:03:14;;;;;;;15.98;4.00;;;6.30;99.90;;;;;;4995641;28;20066;-77
2023/04/25 02:05:40;;;;;;;13.75;4.00;;;6.20;99.90;;;;;;4993750;28;20445;-77
2023/04/25 02:08:08;;;;;;;15.98;4.15;;;6.30;99.90;;;;;;4979362;28;20038;-77
2023/04/25 02:10:34;;;;;;;13.60;4.18;;;6.20;99.90;;;;;;4980420;28;20056;-77
2023/04/25 02:13:01;;;;;;;14.95;3.72;;;6.30;99.90;;;;;;4994074;28;20042;-77
2023/04/25 02:15:26;;;;;;;15.15;3.67;;;6.30;99.90;;;;;;4994630;28;20046;-77
2023/04/25 02:17:55;;;;;;;13.55;3.47;;;6.30;99.90;;;;;;4995184;28;20038;-77
2023/04/25 02:20:22;;;;;;;19.65;4.50;;;6.30;99.90;;;;;;4971350;28;20273;-77
2023/04/25 02:22:48;;;;;;;16.60;4.35;;;6.30;99.90;;;;;;4995081;28;20038;-77
2023/04/25 02:25:14;;;;;;;17.23;4.28;;;6.20;99.90;;;;;;4996546;28;20060;-77
2023/04/25 02:27:39;;;;;;;13.45;4.10;;;6.40;99.90;;;;;;4994727;28;20038;-77
2023/04/25 02:30:06;;;;;;;11.85;3.78;;;6.30;99.90;;;;;;4995199;28;20038;-77
2023/04/25 02:32:34;;;;;;;14.75;4.30;;;6.40;99.90;;;;;;4978925;28;20042;-77
2023/04/25 02:35:03;;;;;;;13.55;3.47;;;6.30;99.90;;;;;;4993888;28;20046;-77
2023/04/25 02:37:29;;;;;;;15.85;4.00;;;6.40;99.90;;;;;;4977856;28;20049;-77
2023/04/25 02:39:55;;;;;;;14.70;4.38;;;6.40;99.90;;;;;;4991198;28;20042;-77
2023/04/25 02:42:21;;;;;;;13.25;4.57;;;6.40;99.90;;;;;;4993034;28;20060;-77
2023/04/25 02:44:46;;;;;;;17.85;4.20;;;6.40;99.90;;;;;;4974937;28;20480;-77
2023/04/25 02:47:12;;;;;;;17.23;4.40;;;7.20;99.90;;;;;;4993265;28;20104;-77
2023/04/25 02:49:37;;;;;;;11.05;3.80;;;6.30;99.90;;;;;;4991961;28;20038;-77
2023/04/25 02:52:03;;;;;;;18.63;4.35;;;6.50;99.90;;;;;;4980400;28;20457;-77
2023/04/25 02:54:30;;;;;;;13.65;3.45;;;6.90;99.90;;;;;;4998325;28;20038;-77
2023/04/25 02:56:55;;;;;;;15.90;4.30;;;6.50;99.90;;;;;;4995077;28;20417;-77
2023/04/25 02:59:21;;;;;;;14.40;3.85;;;7.80;99.90;;;;;;4993938;28;20041;-77
2023/04/25 03:01:47;;;;;;;12.38;3.65;;;6.50;99.90;;;;;;4977412;28;20056;-77
2023/04/25 03:04:12;;;;;;;18.15;4.18;;;6.50;99.90;;;;;;4993180;28;20084;-76
2023/04/25 03:06:38;;;;;;;13.57;3.90;;;6.50;99.90;;;;;;4993817;28;20076;-77
2023/04/25 03:09:06;;;;;;;16.85;4.47;;;6.50;99.90;;;;;;4978336;28;20034;-77
2023/04/25 03:11:31;;;;;;;13.85;4.18;;;6.50;99.90;;;;;;4993592;28;20095;-77
2023/04/25 03:13:57;;;;;;;13.27;3.97;;;6.50;99.90;;;;;;4993344;28;20133;-77
2023/04/25 03:16:23;;;;;;;12.57;3.72;;;6.50;99.90;;;;;;4971127;28;20581;-78
2023/04/25 03:18:50;;;;;;;16.80;3.78;;;6.50;99.90;;;;;;4974930;28;20520;-77
2023/04/25 03:21:17;;;;;;;16.73;3.70;;;6.50;99.90;;;;;;4978490;28;20109;-77
2023/04/25 03:23:43;;;;;;;18.83;3.63;;;6.50;99.90;;;;;;4994045;28;20049;-77
2023/04/25 03:26:09;;;;;;;14.95;3.67;;;6.50;99.90;;;;;;4993401;28;20486;-78
2023/04/25 03:28:35;;;;;;;15.13;3.83;;;6.40;99.90;;;;;;4994173;28;20397;-77
2023/04/25 03:31:00;;;;;;;16.30;4.10;;;6.40;99.90;;;;;;5007496;28;20054;-76
2023/04/25 03:33:26;;;;;;;15.27;3.50;;;7.00;99.90;;;;;;4992866;28;20096;-77
2023/04/25 03:35:52;;;;;;;15.00;3.63;;;6.40;99.90;;;;;;5010700;28;20033;-76
2023/04/25 03:38:17;;;;;;;11.68;4.28;;;6.40;99.90;;;;;;4989269;28;20486;-78
2023/04/25 03:40:43;;;;;;;17.15;3.67;;;6.40;99.90;;;;;;4990250;28;20486;-78
2023/04/25 03:43:08;;;;;;;15.63;4.10;;;6.30;99.90;;;;;;4997059;28;20996;-77
2023/04/25 03:45:34;;;;;;;12.07;4.10;;;6.30;99.90;;;;;;4989963;28;20033;-77
2023/04/25 03:48:00;;;;;;;13.32;3.50;;;6.30;99.90;;;;;;4977733;28;20040;-78
2023/04/25 03:50:26;;;;;;;20.20;4.07;;;6.50;99.90;;;;;;4993466;28;20390;-77
2023/04/25 03:52:52;;;;;;;15.43;3.72;;;6.30;99.90;;;;;;4977506;28;20089;-77
2023/04/25 03:55:18;;;;;;;15.80;3.85;;;6.30;99.90;;;;;;4993678;28;20697;-77
2023/04/25 03:57:44;;;;;;;15.05;3.30;;;6.30;99.90;;;;;;4977188;28;20041;-77
2023/04/25 04:00:10;;;;;;;17.27;3.85;;;6.30;99.90;;;;;;4976649;28;20042;-77
2023/04/25 04:02:37;;;;;;;15.15;3.42;;;6.30;99.90;;;;;;4977428;28;20049;-77
2023/04/25 04:05:03;;;;;;;17.70;3.65;;;6.30;99.90;;;;;;4990590;28;20045;-77
2023/04/25 04:07:29;;;;;;;11.07;2.70;;;6.30;99.90;;;;;;4988723;28;20042;-77
2023/04/25 04:09:55;;;;;;;13.27;3.20;;;6.30;99.90;;;;;;4992011;28;20029;-76
2023/04/25 04:12:20;;;;;;;14.23;2.97;;;6.30;99.90;;;;;;4991983;28;20095;-77
2023/04/25 04:14:46;;;;;;;10.25;2.80;;;6.30;99.90;;;;;;4993992;28;20045;-76
2023/04/25 04:17:11;;;;;;;14.30;2.85;;;6.30;99.90;;;;;;4999872;28;20034;-77
2023/04/25 04:19:37;;;;;;;10.70;2.67;;;6.20;99.90;;;;;;4976233;28;20046;-77
2023/04/25 04:22:02;;;;;;;11.65;2.90;;;6.20;99.90;;;;;;4983884;28;20038;-78
2023/04/25 04:24:28;;;;;;;11.60;2.80;;;6.10;99.90;;;;;;4995713;28;20037;-77
2023/04/25 04:26:56;;;;;;;8.95;2.60;;;6.20;99.90;;;;;;4980874;28;20044;-77
2023/04/25 04:29:22;;;;;;;10.30;2.40;;;6.20;99.90;;;;;;4997155;28;20085;-77
2023/04/25 04:31:52;;;;;;;12.48;2.70;;;7.70;99.90;;;;;;4976802;28;20084;-77
2023/04/25 04:34:18;;;;;;;14.45;3.03;;;6.20;99.90;;;;;;4991960;28;20082;-77
2023/04/25 04:36:47;;;;;;;13.93;2.80;;;7.00;99.90;;;;;;4997134;28;20049;-77
2023/04/25 04:39:13;;;;;;;8.55;2.38;;;6.20;99.90;;;;;;4977549;28;20038;-77
2023/04/25 04:41:39;;;;;;;8.50;2.50;;;6.20;99.90;;;;;;4979215;28;20084;-77
2023/04/25 04:44:06;;;;;;;13.07;3.00;;;6.20;99.90;;;;;;4976357;28;20042;-76
2023/04/25 04:46:37;;;;;;;9.77;2.20;;;6.20;99.90;;;;;;4977629;28;20084;-77
2023/04/25 04:49:04;;;;;;;11.40;2.80;;;6.20;99.90;;;;;;4981143;28;20386;-77
2023/04/25 04:51:31;;;;;;;11.68;2.80;;;6.20;99.90;;;;;;4981668;28;20409;-77
2023/04/25 04:53:58;;;;;;;10.10;2.75;;;6.30;99.90;;;;;;4983271;28;20568;-77
2023/04/25 04:56:25;;;;;;;8.27;2.42;;;6.30;99.90;;;;;;5014571;28;20068;-77
2023/04/25 04:58:52;;;;;;;12.32;2.72;;;6.30;99.90;;;;;;4979212;28;20038;-77
2023/04/25 05:01:17;;;;;;;6.20;1.92;;;6.30;99.90;;;;;;4996240;28;20030;-78
2023/04/25 05:03:43;;;;;;;9.23;2.03;;;6.80;99.90;;;;;;4981767;28;20068;-76
2023/04/25 05:06:09;;;;;;;8.60;2.13;;;6.30;99.90;;;;;;4980422;28;20038;-77
2023/04/25 05:08:36;;;;;;;12.48;3.08;;;6.30;99.90;;;;;;4996269;28;20042;-78
2023/04/25 05:11:01;;;;;;;9.30;2.63;;;6.30;99.90;;;;;;4982950;28;20068;-77
2023/04/25 05:13:27;;;;;;;13.27;3.17;;;6.30;99.90;;;;;;4982226;28;20038;-77
2023/04/25 05:15:52;;;;;;;8.65;2.45;;;6.30;99.90;;;;;;4979494;28;20046;-77
2023/04/25 05:18:18;;;;;;;10.95;2.55;;;6.30;99.90;;;;;;4977132;28;20046;-77
2023/04/25 05:20:44;;;;;;;11.43;2.50;;;6.30;99.90;;;;;;4996312;28;20046;-77
2023/04/25 05:23:09;;;;;;;6.80;2.13;;;6.30;99.90;;;;;;4995799;28;20041;-77
2023/04/25 05:25:35;;;;;;;9.75;1.92;;;6.30;99.90;;;;;;4996275;28;20041;-77
2023/04/25 05:28:00;;;;;;;5.25;1.77;;;6.30;99.90;;;;;;4992675;28;20040;-78
2023/04/25 05:30:26;;;;;;;8.65;1.90;;;6.30;99.90;;;;;;5010722;28;20046;-78
2023/04/25 05:32:53;;;;;;;9.60;2.20;;;6.30;99.90;;;;;;4974428;28;20482;-78
2023/04/25 05:35:18;;;;;;;7.00;2.45;;;6.20;99.90;;;;;;4979737;28;20038;-78
2023/04/25 05:37:44;;;;;;;12.32;2.10;;;6.20;99.90;;;;;;4974641;28;20421;-77
2023/04/25 05:40:10;;;;;;;11.35;2.10;;;6.20;99.90;;;;;;4993009;28;20034;-78
2023/04/25 05:42:35;;;;;;;8.70;2.25;;;6.20;99.90;;;;;;4971799;28;20085;-77
2023/04/25 05:45:01;;;;;;;11.45;2.40;;;6.20;99.90;;;;;;4980523;28;20093;-76
2023/04/25 05:47:27;;;;;;;10.48;2.22;;;6.00;99.90;;;;;;4979353;28;20123;-78
2023/04/25 05:49:53;;;;;;;11.55;2.42;;;6.10;99.90;;;;;;4991290;28;20409;-79
2023/04/25 05:52:18;;;;;;;10.60;2.40;;;6.10;99.90;;;;;;4995035;28;20056;-78
2023/04/25 05:54:44;;;;;;;14.35;2.20;;;6.10;99.90;;;;;;4992668;28;20046;-77
2023/04/25 05:57:25;;;;;;;10.05;2.35;;;6.20;99.90;;;;;;4976933;28;20046;-78
2023/04/25 05:59:51;;;;;;;7.85;2.25;;;6.20;99.90;;;;;;4979938;28;20052;-79
2023/04/25 06:02:18;;;;;;;13.40;2.53;;;6.30;99.90;;;;;;4979314;28;20030;-78
2023/04/25 06:04:44;;;;;;;9.43;2.42;;;6.20;99.90;;;;;;4995926;28;20181;-77
2023/04/25 06:07:10;;;;;;;9.05;2.30;;;6.90;99.90;;;;;;4989768;28;20054;-78
2023/04/25 06:09:35;;;;;;;10.60;2.35;;;6.20;99.90;;;;;;4994559;28;20050;-77
2023/04/25 06:12:01;;;;;;;9.77;2.20;;;6.30;99.90;;;;;;4979236;28;20493;-77
2023/04/25 06:14:27;;;;;;;12.70;2.70;;;6.90;99.90;;;;;;4979667;28;20077;-78
2023/04/25 06:16:53;;;;;;;12.05;2.13;;;6.40;99.90;;;;;;4979724;28;20084;-78
2023/04/25 06:19:21;;;;;;;9.65;2.25;;;6.30;99.90;;;;;;4978855;28;20041;-77
2023/04/25 06:21:46;;;;;;;10.05;2.38;;;6.50;99.90;;;;;;4978817;28;20045;-77
2023/04/25 06:24:12;;;;;;;11.88;2.30;;;6.50;99.90;;;;;;4980069;28;20042;-78
2023/04/25 06:26:38;;;;;;;9.27;2.05;;;6.50;99.90;;;;;;4979819;28;20125;-77
2023/04/25 06:29:03;;;;;;;7.93;2.88;;;6.60;99.90;;;;;;5012119;28;20406;-77
2023/04/25 06:31:32;;;;;;;8.98;2.35;;;6.60;99.90;;;;;;4985806;28;20038;-78
2023/04/25 06:33:57;;;;;;;10.93;2.60;;;6.70;99.90;;;;;;4988246;28;20088;-77
2023/04/25 06:36:24;;;;;;;11.23;2.75;;;6.70;99.90;;;;;;4989581;28;20077;-78
2023/04/25 06:38:52;;;;;;;8.68;2.15;;;6.70;99.90;;;;;;4995104;28;20046;-77
2023/04/25 06:41:18;;;;;;;7.97;2.45;;;6.70;99.90;;;;;;4992001;28;20524;-77
2023/04/25 06:43:44;;;;;;;9.15;1.80;;;6.70;99.90;;;;;;4989028;28;20082;-77
2023/04/25 06:46:10;;;;;;;9.43;1.98;;;6.60;99.90;;;;;;4995276;28;20711;-74
2023/04/25 06:48:35;;;;;;;8.25;1.83;;;7.50;99.90;;;;;;4971908;28;20060;-77
2023/04/25 06:51:01;;;;;;;14.73;1.85;;;6.50;99.90;;;;;;4995172;28;20038;-77
2023/04/25 06:53:26;;;;;;;7.00;2.20;;;6.50;99.90;;;;;;4991340;28;20096;-78
2023/04/25 06:55:52;;;;;;;6.65;1.90;;;6.50;99.90;;;;;;4990065;28;20072;-78
2023/04/25 06:58:18;;;;;;;12.70;2.25;;;7.30;99.90;;;;;;4971028;28;20073;-77
2023/04/25 07:00:44;;;;;;;12.13;2.30;;;6.50;99.90;;;;;;4988332;28;20041;-77
2023/04/25 07:03:09;;;;;;;7.10;1.60;;;6.50;99.90;;;;;;5005937;23;20466;-62
2023/04/25 07:05:35;;;;;;;7.10;1.65;;;6.50;99.90;;;;;;5006503;28;20030;-63
2023/04/25 07:08:01;;;;;;;11.13;1.95;;;6.60;99.90;;;;;;5005513;28;20061;-63
2023/04/25 07:10:26;;;;;;;9.85;2.08;;;6.60;99.90;;;;;;4988777;28;20044;-63
2023/04/25 07:12:52;;;;;;;12.10;1.92;;;6.70;99.90;;;;;;4996415;28;20045;-65
2023/04/25 07:15:17;;;;;;;9.73;1.85;;;6.70;99.90;;;;;;4996974;28;20037;-62
2023/04/25 07:17:43;;;;;;;10.35;2.35;;;6.90;99.90;;;;;;4982651;28;20495;-63
2023/04/25 07:20:09;;;;;;;11.13;2.25;;;6.90;99.90;;;;;;4998351;28;20048;-62
2023/04/25 07:22:35;;;;;;;9.73;2.00;;;7.00;99.90;;;;;;4986691;28;20076;-63
2023/04/25 07:25:01;;;;;;;10.57;2.03;;;7.00;99.90;;;;;;4992638;28;20038;-65
2023/04/25 07:27:26;;;;;;;9.95;2.10;;;7.10;99.90;;;;;;5011034;28;20030;-65
2023/04/25 07:29:52;;;;;;;9.75;2.30;;;7.10;99.90;;;;;;5008752;28;20065;-62
2023/04/25 07:32:18;;;;;;;11.52;2.70;;;7.10;99.90;;;;;;5010794;28;20042;-62
2023/04/25 07:34:44;;;;;;;9.40;3.03;;;7.20;99.90;;;;;;5010690;28;20121;-62
2023/04/25 07:37:09;;;;;;;7.72;2.03;;;7.20;99.90;;;;;;5006505;28;20038;-63
2023/04/25 07:39:35;;;;;;;10.90;2.13;;;7.20;99.90;;;;;;5003654;28;20042;-64
2023/04/25 07:42:02;;;;;;;10.85;2.25;;;7.30;99.90;;;;;;5009739;28;20065;-63
2023/04/25 07:44:27;;;;;;;8.65;2.20;;;7.30;99.90;;;;;;5000206;28;20091;-63
2023/04/25 07:46:53;;;;;;;13.88;1.98;;;7.40;99.90;;;;;;5006534;28;20038;-64
2023/04/25 07:49:19;;;;;;;10.95;2.03;;;7.40;99.90;;;;;;4990765;28;20034;-63
2023/04/25 07:51:45;;;;;;;7.50;1.73;;;7.40;99.90;;;;;;5009756;28;20153;-63
2023/04/25 07:54:13;;;;;;;8.80;1.80;;;7.30;99.90;;;;;;5008261;28;20068;-62
2023/04/25 07:56:39;;;;;;;10.73;1.73;;;7.30;99.90;;;;;;5010332;28;20125;-62
2023/04/25 07:59:05;;;;;;;7.38;1.80;;;7.20;99.90;;;;;;5014567;28;20120;-62
2023/04/25 08:01:30;;;;;;;9.65;1.83;;;7.20;99.90;;;;;;5012447;28;20034;-62
2023/04/25 08:03:56;;;;;;;12.35;2.08;;;7.20;99.90;;;;;;4996839;28;20037;-63
2023/04/25 08:06:21;;;;;;;9.35;1.90;;;7.30;99.90;;;;;;5012969;28;20056;-64
2023/04/25 08:08:47;;;;;;;4.18;1.38;;;7.30;99.90;;;;;;4982489;28;20034;-63
2023/04/25 08:11:13;;;;;;;11.38;1.80;;;7.40;99.90;;;;;;4984412;28;20109;-62
2023/04/25 08:13:38;;;;;;;10.57;2.25;;;7.50;99.90;;;;;;5006013;28;20040;-62
2023/04/25 08:16:04;;;;;;;10.63;1.73;;;7.60;99.90;;;;;;5012085;28;20400;-65
2023/04/25 08:18:30;;;;;;;13.52;2.13;;;7.60;99.90;;;;;;4990454;28;20119;-62
2023/04/25 08:20:56;;;;;;;5.63;1.30;;;7.70;99.90;;;;;;5012524;28;20037;-64
2023/04/25 08:23:22;;;;;;;5.85;1.02;;;7.70;99.90;;;;;;5013093;28;20052;-62
2023/04/25 08:25:47;;;;;;;3.60;1.17;;;7.50;99.90;;;;;;5001369;28;20030;-62
2023/04/25 08:28:13;;;;;;;4.25;1.10;;;7.30;99.90;;;;;;5008923;28;20034;-63
2023/04/25 08:30:38;;;;;;;2.10;1.00;;;7.20;99.90;;;;;;4982778;28;20042;-64
2023/04/25 08:33:04;;;;;;;5.72;0.90;;;7.10;99.90;;;;;;4996710;28;20559;-62
2023/04/25 08:35:29;;;;;;;4.28;1.10;;;7.00;99.90;;;;;;4989876;28;20054;-62
2023/04/25 08:37:55;;;;;;;4.32;0.82;;;7.00;99.90;;;;;;4992970;28;20120;-63
2023/04/25 08:40:28;;;;;;;4.43;1.20;;;7.10;99.90;;;;;;4985843;28;20038;-65
2023/04/25 08:42:55;;;;;;;4.60;1.10;;;7.20;99.90;;;;;;5013544;28;20113;-63
2023/04/25 08:45:20;;;;;;;6.45;1.20;;;7.30;99.90;;;;;;4981358;28;20113;-62
2023/04/25 08:47:48;;;;;;;6.95;1.10;;;7.50;99.90;;;;;;4999762;28;20602;-63
2023/04/25 08:50:14;;;;;;;2.38;0.90;;;7.60;99.90;;;;;;5008016;28;20110;-63
2023/04/25 08:52:52;;;;;;;5.72;1.20;;;7.70;99.90;;;;;;5013309;28;20184;-63
2023/04/25 08:55:18;;;;;;;3.70;1.17;;;7.80;99.90;;;;;;4989150;28;20116;-63
2023/04/25 08:57:44;;;;;;;5.70;1.42;;;7.90;99.90;;;;;;5009921;28;20044;-63
2023/04/25 09:00:12;;;;;;;7.93;1.35;;;8.00;99.90;;;;;;4979921;28;20400;-65
2023/04/25 09:02:39;;;;;;;7.32;1.20;;;8.00;99.90;;;;;;5006980;28;20056;-63
2023/04/25 09:05:06;;;;;;;7.60;1.33;;;8.20;99.90;;;;;;5005723;28;20042;-62
2023/04/25 09:07:32;;;;;;;4.00;0.90;;;8.40;99.90;;;;;;5002799;28;20057;-64
2023/04/25 09:10:01;;;;;;;6.88;1.52;;;8.80;99.90;;;;;;5015852;28;20042;-65
2023/04/25 09:12:28;;;;;;;4.03;1.10;;;9.20;99.90;;;;;;5006216;28;20400;-63
2023/04/25 09:15:09;;;;;;;7.13;1.48;;;9.50;99.90;;;;;;4996482;28;20442;-65
2023/04/25 09:17:35;;;;;;;4.43;1.25;;;9.80;99.90;;;;;;5003477;28;20056;-62
2023/04/25 09:20:09;;;;;;;7.13;1.70;;;10.00;99.90;;;;;;5013189;28;20488;-64
2023/04/25 09:22:36;;;;;;;6.60;1.33;;;10.40;99.90;;;;;;4984536;28;20532;-63
2023/04/25 09:25:04;;;;;;;5.68;1.40;;;10.70;99.90;;;;;;5016481;28;20070;-67
2023/04/25 09:27:29;;;;;;;11.20;2.22;;;10.80;99.90;;;;;;5007906;28;20045;-63
2023/04/25 09:30:00;;;;;;;7.65;1.70;;;10.80;99.90;;;;;;5013121;28;20034;-62
2023/04/25 09:32:26;;;;;;;6.97;1.60;;;10.60;99.90;;;;;;4985076;28;20383;-62
2023/04/25 09:34:56;;;;;;;8.18;1.60;;;10.50;99.90;;;;;;5002986;28;20034;-65
2023/04/25 09:37:24;;;;;;;7.75;1.50;;;10.30;99.90;;;;;;4995085;28;20546;-62
2023/04/25 09:39:54;;;;;;;4.68;1.45;;;10.30;99.90;;;;;;5003617;28;20100;-62
2023/04/25 09:42:23;;;;;;;6.45;2.00;;;10.50;99.90;;;;;;4980176;28;20050;-62
2023/04/25 09:44:52;;;;;;;8.52;1.75;;;10.80;99.90;;;;;;4981802;28;20039;-62
2023/04/25 09:47:21;;;;;;;9.13;1.83;;;11.00;99.90;;;;;;5019867;28;20041;-64
2023/04/25 09:49:46;;;;;;;9.15;1.83;;;11.20;99.90;;;;;;4990019;28;20400;-62
2023/04/25 09:52:20;;;;;;;6.95;1.60;;;11.30;99.90;;;;;;4988074;28;20056;-63
2023/04/25 09:54:47;;;;;;;7.15;1.70;;;11.30;99.90;;;;;;4981307;28;20485;-63
2023/04/25 09:57:22;;;;;;;6.95;1.40;;;11.50;99.90;;;;;;4991488;28;20410;-61
2023/04/25 09:59:49;;;;;;;7.00;1.73;;;11.60;99.90;;;;;;5022987;28;20041;-63
2023/04/25 10:02:18;;;;;;;5.65;1.48;;;11.70;99.90;;;;;;5007957;28;20042;-62
2023/04/25 10:04:47;;;;;;;9.85;1.88;;;11.90;99.90;;;;;;4986050;28;20061;-63
2023/04/25 10:07:14;;;;;;;8.50;1.85;;;12.00;99.90;;;;;;5001898;28;20129;-62
2023/04/25 10:09:40;;;;;;;10.23;1.80;;;12.20;99.90;;;;;;4983192;28;20088;-65
2023/04/25 10:12:07;;;;;;;6.30;1.80;;;12.40;99.90;;;;;;4984516;28;20120;-62
2023/04/25 10:14:33;;;;;;;8.50;1.65;;;12.40;99.90;;;;;;4998206;28;20489;-62
2023/04/25 10:17:01;;;;;;;4.40;1.60;;;12.40;99.90;;;;;;4999454;28;20052;-62
2023/04/25 10:19:27;;;;;;;5.30;1.77;;;12.10;99.90;;;;;;5003971;28;20042;-63
2023/04/25 10:21:52;;;;;;;4.75;1.50;;;11.70;99.90;;;;;;5003602;28;20074;-62
2023/04/25 10:24:20;;;;;;;12.68;1.60;;;11.30;99.90;;;;;;5005964;28;20114;-62
2023/04/25 10:26:47;;;;;;;7.68;1.50;;;11.00;99.90;;;;;;4991051;28;20041;-62
2023/04/25 10:29:12;;;;;;;9.25;1.80;;;10.80;99.90;;;;;;5011540;28;20121;-63
2023/04/25 10:31:47;;;;;;;6.72;1.58;;;10.70;99.90;;;;;;4977689;28;20129;-66
2023/04/25 10:34:13;;;;;;;5.97;1.42;;;10.60;99.90;;;;;;4978793;28;20041;-62
2023/04/25 10:36:39;;;;;;;6.72;1.52;;;10.40;99.90;;;;;;4999731;28;20034;-61
2023/04/25 10:39:07;;;;;;;6.00;1.60;;;10.20;99.90;;;;;;4987940;28;20041;-62
2023/04/25 10:41:46;;;;;;;6.30;1.65;;;10.00;99.90;;;;;;4985774;28;20125;-62
2023/04/25 10:44:13;;;;;;;8.23;1.60;;;9.90;99.90;;;;;;4981667;28;20767;-61
2023/04/25 10:46:39;;;;;;;6.93;1.85;;;9.70;99.90;;;;;;5003808;28;20034;-62
2023/04/25 10:49:04;;;;;;;10.77;2.08;;;9.60;99.90;;;;;;4990902;28;20036;-64
2023/04/25 10:51:34;;;;;;;7.78;1.70;;;9.50;99.90;;;;;;5008819;28;20058;-61
2023/04/25 10:54:05;;;;;;;11.70;1.83;;;9.50;99.90;;;;;;5007434;28;20372;-62
2023/04/25 10:56:32;;;;;;;7.53;1.85;;;9.60;99.90;;;;;;4987581;28;20160;-61
2023/04/25 10:59:11;;;;;;;7.90;1.95;;;9.60;99.90;;;;;;5003810;28;20154;-61
2023/04/25 11:01:42;;;;;;;5.90;1.67;;;9.70;99.90;;;;;;4991501;28;20085;-61
2023/04/25 11:04:33;;;;;;;6.65;1.60;;;9.80;99.90;;;;;;5002951;28;20088;-62
2023/04/25 11:07:16;;;;;;;8.27;1.77;;;10.00;99.90;;;;;;4972369;28;20499;-61
2023/04/25 11:09:45;;;;;;;8.68;1.40;;;10.40;99.90;;;;;;4984006;28;20043;-61
2023/04/25 11:12:13;;;;;;;8.02;1.63;;;10.70;99.90;;;;;;5004136;28;20547;-61
2023/04/25 11:14:39;;;;;;;29.38;3.10;;;11.00;99.90;;;;;;5009711;28;20029;-61
2023/04/25 11:17:05;;;;;;;16.75;2.10;;;11.20;99.90;;;;;;5007254;28;20053;-62
2023/04/25 11:19:31;;;;;;;9.40;1.65;;;11.50;99.90;;;;;;4977333;28;20680;-63
2023/04/25 11:22:02;;;;;;;6.13;1.95;;;11.90;99.90;;;;;;5001680;28;20041;-61
2023/04/25 11:24:29;;;;;;;5.95;1.40;;;12.30;99.90;;;;;;5002058;28;20038;-65
2023/04/25 11:26:55;;;;;;;4.20;1.38;;;12.50;99.90;;;;;;5000116;28;20069;-66
2023/04/25 11:29:26;;;;;;;7.43;1.60;;;12.70;99.90;;;;;;5007054;28;20073;-61
2023/04/25 11:31:53;;;;;;;4.75;1.45;;;12.90;99.90;;;;;;5008680;28;20658;-62
2023/04/25 11:34:19;;;;;;;7.43;1.75;;;13.00;99.90;;;;;;5014087;28;20052;-63
2023/04/25 11:36:45;;;;;;;5.35;1.80;;;13.20;99.90;;;;;;5005124;28;20038;-66
2023/04/25 11:39:11;;;;;;;8.13;1.90;;;13.30;99.90;;;;;;4985502;28;20042;-63
2023/04/25 11:41:38;;;;;;;9.55;1.80;;;13.40;99.90;;;;;;4998000;28;20048;-65
2023/04/25 11:44:05;;;;;;;6.68;1.88;;;13.40;99.90;;;;;;4989075;28;20050;-68
2023/04/25 11:46:33;;;;;;;7.78;1.58;;;13.50;99.90;;;;;;4984069;28;20152;-63
2023/04/25 11:48:59;;;;;;;5.75;1.48;;;13.60;99.90;;;;;;5002319;28;20038;-65
2023/04/25 11:51:26;;;;;;;4.35;1.30;;;13.50;99.90;;;;;;4993689;28;20462;-65
2023/04/25 11:53:51;;;;;;;5.60;1.42;;;13.30;99.90;;;;;;4997819;28;20053;-67
2023/04/25 11:56:17;;;;;;;4.20;1.33;;;13.00;99.60;;;;;;4971783;28;20096;-64
2023/04/25 11:59:01;;;;;;;5.68;1.38;;;12.90;99.90;;;;;;5004410;28;20112;-64
2023/04/25 12:01:30;;;;;;;6.88;1.50;;;12.90;99.90;;;;;;5000394;28;20045;-62
2023/04/25 12:03:57;;;;;;;5.07;1.30;;;13.10;99.90;;;;;;4989027;28;20033;-62
2023/04/25 12:06:27;;;;;;;5.80;1.35;;;13.30;99.90;;;;;;5005729;28;20048;-62
2023/04/25 12:09:23;;;;;;;5.32;1.33;;;13.50;99.90;;;;;;5017075;28;20125;-68
2023/04/25 12:11:54;;;;;;;4.65;1.33;;;13.70;98.40;;;;;;5007680;28;20058;-66
2023/04/25 12:14:24;;;;;;;4.47;1.50;;;13.90;98.90;;;;;;5005064;28;20073;-63
2023/04/25 12:16:51;;;;;;;4.78;1.48;;;13.70;98.70;;;;;;5005704;28;20456;-66
2023/04/25 12:19:17;;;;;;;6.85;1.70;;;13.60;99.00;;;;;;5006334;28;20046;-66
2023/04/25 12:21:44;;;;;;;6.50;1.67;;;13.20;98.70;;;;;;4988680;28;20042;-63
2023/04/25 12:24:18;;;;;;;5.50;1.70;;;12.90;99.40;;;;;;5006142;28;20100;-62
2023/04/25 12:26:50;;;;;;;5.90;1.70;;;12.60;99.50;;;;;;5005257;28;20042;-63
2023/04/25 12:29:24;;;;;;;23.98;2.58;;;12.20;99.00;;;;;;4983106;28;20049;-62
2023/04/25 12:31:51;;;;;;;133.05;8.35;;;11.80;99.60;;;;;;4990692;28;20041;-67
2023/04/25 12:34:22;;;;;;;19.35;2.55;;;11.50;99.90;;;;;;4998416;28;20555;-64
2023/04/25 12:36:48;;;;;;;6.72;1.83;;;11.20;99.90;;;;;;5012520;28;20396;-63
2023/04/25 12:39:21;;;;;;;9.90;4.40;;;11.00;99.90;;;;;;5013721;28;20040;-62
2023/04/25 12:41:48;;;;;;;10.23;3.28;;;10.80;99.90;;;;;;5013331;28;20030;-63
2023/04/25 12:44:14;;;;;;;7.05;2.10;;;10.70;99.90;;;;;;4988132;28;20452;-62
2023/04/25 12:46:43;;;;;;;7.40;2.53;;;10.80;99.90;;;;;;5013571;28;20053;-64